Time;durP1;ratioP1;P1;durP2;ratioP2;P2;SDS_P1;SDS_P2;PMS_P1;PMS_P2;Temp;Humidity;BMP_temperature;BMP_pressure;BME280_temperature;BME280_humidity;BME280_pressure;Samples;Min_cycle;Max_cycle;Signal;HPM_P1;HPM_P2
2023/07/14 00:01:52;;;;;;;;;;;;;;;;;;;;;
2023/07/14 00:04:32;;;;;;;6.07;3.80;;;;;;;16.48;82.67;101656.13;5001150;28;20025;-95
2023/07/14 00:06:58;;;;;;;5.65;4.10;;;;;;;16.46;83.04;101656.16;4991080;28;20489;-94
2023/07/14 00:09:46;;;;;;;;;;;;;;;;;;;;;
2023/07/14 00:12:21;;;;;;;6.40;4.28;;;;;;;16.45;83.17;101664.94;4998147;28;20040;-96
2023/07/14 00:14:50;;;;;;;5.18;3.97;;;;;;;16.44;83.56;101665.00;5002220;28;20034;-95
2023/07/14 00:17:33;;;;;;;5.65;4.10;;;;;;;16.42;83.46;101658.97;4984797;28;20488;-95
2023/07/14 00:20:28;;;;;;;;;;;;;;;;;;;;;
2023/07/14 00:22:55;;;;;;;5.25;4.25;;;;;;;16.42;84.26;101657.16;5000821;28;20352;-95
2023/07/14 00:25:23;;;;;;;5.32;3.97;;;;;;;16.42;84.26;101662.41;4985486;28;20038;-95
2023/07/14 00:27:53;;;;;;;6.32;4.07;;;;;;;16.39;84.21;101650.28;4996169;28;20101;-94
2023/07/14 00:30:27;;;;;;;5.97;4.00;;;;;;;16.37;84.19;101651.25;4980011;28;20116;-94
2023/07/14 00:33:02;;;;;;;5.60;4.25;;;;;;;16.34;84.65;101646.94;4981398;28;20033;-95
2023/07/14 00:35:34;;;;;;;6.32;4.28;;;;;;;16.33;84.73;101654.91;4986560;28;20150;-94
2023/07/14 00:38:05;;;;;;;5.53;4.22;;;;;;;16.32;84.71;101653.19;4999237;28;20041;-95
2023/07/14 00:40:49;;;;;;;;;;;;;;;;;;;;;
2023/07/14 00:43:36;;;;;;;;;;;;;;;;;;;;;
2023/07/14 00:46:29;;;;;;;;;;;;;;;;;;;;;
2023/07/14 00:49:17;;;;;;;4.90;3.63;;;;;;;16.22;84.23;101643.03;5003023;28;20038;-96
2023/07/14 00:52:27;;;;;;;;;;;;;;;;;;;;;
2023/07/14 00:54:55;;;;;;;6.47;4.10;;;;;;;16.20;83.83;101644.00;5001534;28;20034;-93
2023/07/14 01:00:29;;;;;;;6.95;4.28;;;;;;;16.12;84.03;101639.00;4994287;28;20077;-95
2023/07/14 01:02:57;;;;;;;;;;;;;;;16.17;81.26;101644.97;5001566;28;20033;-95
2023/07/14 01:05:27;;;;;;;6.63;4.22;;;;;;;16.08;83.82;101643.53;4997937;28;20015;-94
2023/07/14 01:07:58;;;;;;;5.28;4.05;;;;;;;16.06;84.21;101639.22;4999171;28;20105;-96
2023/07/14 01:10:35;;;;;;;7.40;4.30;;;;;;;16.05;84.24;101629.66;5000420;28;20040;-95
2023/07/14 01:13:06;;;;;;;5.75;4.15;;;;;;;16.04;84.43;101633.22;5020772;28;20019;-93
2023/07/14 01:15:45;;;;;;;;;;;;;;;;;;;;;
2023/07/14 01:18:21;;;;;;;;;;;;;;;;;;;;;
2023/07/14 01:21:27;;;;;;;;;;;;;;;;;;;;;
2023/07/14 01:24:24;;;;;;;;;;;;;;;;;;;;;
2023/07/14 01:27:18;;;;;;;;;;;;;;;;;;;;;
2023/07/14 01:29:47;;;;;;;6.68;4.18;;;;;;;15.98;85.67;101628.16;4999957;28;20036;-95
2023/07/14 01:32:24;;;;;;;6.60;4.45;;;;;;;15.98;85.76;101628.16;5003657;28;20031;-94
2023/07/14 01:35:05;;;;;;;;;;;;;;;;;;;;;
2023/07/14 01:37:58;;;;;;;;;;;;;;;;;;;;;
2023/07/14 01:40:34;;;;;;;7.07;4.22;;;;;;;15.97;85.97;101608.06;4993475;28;20054;-93
2023/07/14 01:43:03;;;;;;;5.25;4.10;;;;;;;15.97;86.07;101618.56;4998113;28;20065;-93
2023/07/14 01:45:45;;;;;;;5.43;4.10;;;;;;;15.97;85.75;101602.81;4982672;28;20030;-91
2023/07/14 01:48:18;;;;;;;6.45;4.30;;;;;;;15.96;85.87;101603.75;4996680;28;20761;-94
2023/07/14 01:50:50;;;;;;;5.75;4.55;;;;;;;15.95;85.90;101618.66;4994612;28;20036;-94
2023/07/14 01:53:22;;;;;;;7.38;4.38;;;;;;;15.94;85.89;101624.81;4996664;28;20032;-94
2023/07/14 01:55:49;;;;;;;6.47;4.55;;;;;;;15.95;85.93;101617.78;4998808;28;21451;-94
2023/07/14 01:58:36;;;;;;;6.45;4.50;;;;;;;15.96;85.68;101620.34;4997039;28;20033;-94
2023/07/14 02:01:13;;;;;;;;;;;;;;;;;;;;;
2023/07/14 02:03:58;;;;;;;;;;;;;;;;;;;;;
2023/07/14 02:06:28;;;;;;;7.03;4.85;;;;;;;15.99;86.01;101603.63;4996301;28;20042;-95
2023/07/14 02:09:04;;;;;;;6.82;4.63;;;;;;;15.98;85.98;101607.16;5001807;28;20112;-94
2023/07/14 02:11:30;;;;;;;6.32;4.63;;;;;;;15.98;85.83;101607.16;4987969;28;20437;-94
2023/07/14 02:13:56;;;;;;;6.40;4.35;;;;;;;15.98;85.87;101607.16;4997129;28;20109;-94
2023/07/14 02:16:27;;;;;;;6.57;4.50;;;;;;;15.96;85.64;101603.75;4999937;28;20527;-95
2023/07/14 02:19:23;;;;;;;6.75;4.68;;;;;;;15.95;85.66;101604.66;4996828;28;20025;-93
2023/07/14 02:21:50;;;;;;;6.78;4.00;;;;;;;15.92;85.27;101598.59;4990433;28;20046;-95
2023/07/14 02:24:19;;;;;;;6.22;4.25;;;;;;;15.92;85.65;101598.59;4998738;28;20022;-94
2023/07/14 02:27:01;;;;;;;6.72;4.28;;;;;;;15.91;85.75;101596.88;5001038;28;20139;-95
2023/07/14 02:29:27;;;;;;;5.20;4.10;;;;;;;15.93;85.55;101594.22;4999836;28;20161;-94
2023/07/14 02:32:03;;;;;;;6.07;4.30;;;;;;;15.91;85.48;101590.78;5003224;28;20030;-95
2023/07/14 02:34:36;;;;;;;8.57;4.75;;;;;;;15.86;85.74;101587.47;4996358;28;20509;-95
2023/07/14 02:37:05;;;;;;;7.07;4.45;;;;;;;15.82;85.58;101586.69;5000829;28;20030;-94
2023/07/14 02:39:40;;;;;;;7.43;4.63;;;;;;;15.83;85.29;101585.78;4980878;28;20030;-94
2023/07/14 02:42:06;;;;;;;5.72;4.38;;;;;;;15.81;84.96;101595.47;4999590;28;20041;-95
2023/07/14 02:44:36;;;;;;;8.93;4.07;;;;;;;15.81;84.95;101592.84;4992072;28;20149;-94
2023/07/14 02:47:17;;;;;;;6.68;4.68;;;;;;;15.83;84.66;101596.28;4998358;28;20022;-93
2023/07/14 02:49:48;;;;;;;;;;;;;;;15.90;82.83;101600.41;4998025;28;20122;-93
2023/07/14 02:52:14;;;;;;;5.88;4.00;;;;;;;15.83;84.71;101598.91;4999952;28;20324;-94
2023/07/14 02:54:40;;;;;;;5.40;4.10;;;;;;;15.79;84.83;101597.28;4998382;28;20073;-94
2023/07/14 02:57:23;;;;;;;;;;;;;;;;;;;;;
2023/07/14 02:59:58;;;;;;;;;;;;;;;;;;;;;
2023/07/14 03:02:34;;;;;;;;;;;;;;;;;;;;;
2023/07/14 03:05:07;;;;;;;5.25;3.88;;;;;;;15.71;85.17;101588.84;5002859;28;20023;-94
2023/07/14 03:07:40;;;;;;;5.90;3.97;;;;;;;15.68;85.01;101591.59;5003150;28;20034;-94
2023/07/14 03:10:08;;;;;;;6.15;4.20;;;;;;;15.65;85.03;101594.31;5000139;28;20030;-94
2023/07/14 03:12:34;;;;;;;7.05;4.82;;;;;;;15.62;85.25;101590.88;4983017;28;20037;-94
2023/07/14 03:15:02;;;;;;;7.03;4.70;;;;;;;15.62;85.02;101590.88;4999142;28;20085;-94
2023/07/14 03:17:27;;;;;;;7.20;5.13;;;;;;;15.61;85.42;101583.09;5001069;28;20096;-94
2023/07/14 03:19:53;;;;;;;9.05;4.82;;;;;;;15.62;85.35;101585.63;5003783;28;20109;-94
2023/07/14 03:22:18;;;;;;;8.52;4.32;;;;;;;15.61;85.38;101578.69;5005475;28;20034;-88
2023/07/14 03:24:51;;;;;;;6.65;4.55;;;;;;;15.59;85.33;101570.00;5016847;28;20026;-94
2023/07/14 03:27:16;;;;;;;6.65;4.30;;;;;;;15.60;85.41;101570.88;4998196;28;20125;-95
2023/07/14 03:29:44;;;;;;;6.55;4.15;;;;;;;15.59;85.03;101572.63;5005010;28;20704;-95
2023/07/14 03:32:12;;;;;;;5.15;4.28;;;;;;;15.62;85.16;101579.56;5001019;28;20112;-94
2023/07/14 03:34:38;;;;;;;5.70;4.18;;;;;;;15.60;84.88;101574.34;4992953;28;20030;-94
2023/07/14 03:37:05;;;;;;;5.50;4.18;;;;;;;15.60;84.99;101576.97;5001090;28;20022;-93
2023/07/14 03:39:31;;;;;;;7.28;4.50;;;;;;;15.61;85.18;101569.97;4999628;28;20058;-94
2023/07/14 03:42:00;;;;;;;7.53;4.43;;;;;;;15.60;85.30;101569.09;4987549;28;20084;-95
2023/07/14 03:44:35;;;;;;;6.25;4.28;;;;;;;15.63;85.25;101568.13;4985075;28;20460;-95
2023/07/14 03:47:02;;;;;;;6.80;4.22;;;;;;;15.61;85.40;101567.34;4983696;28;20049;-93
2023/07/14 03:49:28;;;;;;;5.57;3.90;;;;;;;15.60;85.39;101563.84;4982610;28;20049;-94
2023/07/14 03:51:54;;;;;;;6.25;4.00;;;;;;;15.61;85.39;101565.56;5002251;28;20069;-94
2023/07/14 03:54:19;;;;;;;6.78;4.03;;;;;;;15.61;85.16;101565.56;5000853;28;20030;-93
2023/07/14 03:56:47;;;;;;;7.03;4.45;;;;;;;15.60;85.42;101560.38;5002425;28;20037;-96
2023/07/14 03:59:13;;;;;;;6.45;4.13;;;;;;;15.60;85.43;101565.63;4998120;28;20033;-95
2023/07/14 04:01:39;;;;;;;6.75;4.00;;;;;;;15.59;85.43;101556.88;5001886;28;20032;-93
2023/07/14 04:04:07;;;;;;;5.80;4.07;;;;;;;15.60;85.50;101560.38;4998614;28;20023;-96
2023/07/14 04:06:33;;;;;;;6.80;4.47;;;;;;;15.58;85.74;101557.78;4996606;28;22597;-94
2023/07/14 04:09:00;;;;;;;5.95;4.18;;;;;;;15.58;85.73;101556.97;5001519;28;20073;-94
2023/07/14 04:11:25;;;;;;;8.70;4.30;;;;;;;15.58;85.54;101564.81;5001793;28;20080;-94
2023/07/14 04:13:53;;;;;;;6.45;4.45;;;;;;;15.57;85.70;101557.88;4980491;28;20034;-95
2023/07/14 04:16:25;;;;;;;6.07;4.35;;;;;;;15.56;85.71;101562.25;4979324;28;20018;-95
2023/07/14 04:18:51;;;;;;;6.32;4.07;;;;;;;15.56;85.77;101557.00;4995642;28;20030;-94
2023/07/14 04:21:17;;;;;;;6.78;4.15;;;;;;;15.54;85.95;101561.44;5001724;28;20029;-94
2023/07/14 04:23:47;;;;;;;6.85;4.05;;;;;;;15.54;86.27;101553.56;5003187;28;20469;-94
2023/07/14 04:26:25;;;;;;;6.97;4.38;;;;;;;15.55;86.36;101555.28;4980952;28;20029;-95
2023/07/14 04:29:13;;;;;;;6.30;4.25;;;;;;;15.56;86.49;101557.00;4981927;28;20442;-95
2023/07/14 04:31:41;;;;;;;7.55;4.53;;;;;;;15.57;86.65;101550.00;5002071;28;20033;-95
2023/07/14 04:34:07;;;;;;;6.55;4.25;;;;;;;15.60;86.51;101549.88;4978337;28;20050;-94
2023/07/14 04:37:00;;;;;;;6.88;4.68;;;;;;;15.62;85.97;101548.91;4984394;28;20482;-94
2023/07/14 04:39:35;;;;;;;6.28;4.25;;;;;;;15.63;86.43;101545.38;4997245;28;20037;-95
2023/07/14 04:42:10;;;;;;;7.00;4.32;;;;;;;15.64;86.46;101546.22;5000065;28;20085;-95
2023/07/14 04:44:35;;;;;;;5.47;4.07;;;;;;;15.66;86.44;101551.44;4997904;28;20054;-94
2023/07/14 04:47:00;;;;;;;7.35;4.45;;;;;;;15.66;86.54;101554.06;4995117;28;20434;-94
2023/07/14 04:49:26;;;;;;;5.88;4.18;;;;;;;15.67;86.04;101551.38;5002110;28;20106;-94
2023/07/14 04:51:54;;;;;;;7.20;3.97;;;;;;;15.69;85.89;101554.78;5000831;28;20092;-94
2023/07/14 04:54:23;;;;;;;6.07;3.90;;;;;;;15.69;85.42;101549.56;4997432;28;20033;-95
2023/07/14 04:56:51;;;;;;;5.25;3.90;;;;;;;15.69;85.94;101546.09;4995435;28;20097;-94
2023/07/14 04:59:26;;;;;;;4.97;3.53;;;;;;;15.71;85.48;101546.88;4996165;28;20042;-95
2023/07/14 05:02:05;;;;;;;;;;;;;;;;;;;;;
2023/07/14 05:04:32;;;;;;;7.70;3.92;;;;;;;15.73;85.56;101551.16;5005174;28;20030;-92
2023/07/14 05:06:59;;;;;;;6.20;3.80;;;;;;;15.72;85.27;101546.81;4998491;28;20041;-95
2023/07/14 05:09:25;;;;;;;5.00;3.70;;;;;;;15.74;85.33;101549.38;4993949;28;20049;-93
2023/07/14 05:11:50;;;;;;;5.00;3.53;;;;;;;15.74;84.81;101546.75;4982603;28;20026;-93
2023/07/14 05:15:12;;;;;;;;;;;;;;;;;;;;;
2023/07/14 05:17:43;;;;;;;6.75;3.45;;;;;;;15.74;84.13;101546.75;4992817;28;20060;-94
2023/07/14 05:20:28;;;;;;;;;;;;;;;;;;;;;
2023/07/14 05:23:01;;;;;;;5.28;3.65;;;;;;;15.77;84.35;101536.16;4998706;28;20037;-94
2023/07/14 05:29:05;;;;;;;5.05;3.20;;;;;;;15.88;83.38;101549.78;4993020;28;20084;-93
2023/07/14 05:31:32;;;;;;;5.28;3.40;;;;;;;15.87;83.64;101541.94;5001674;28;20026;-93
2023/07/14 05:34:00;;;;;;;4.57;3.47;;;;;;;15.89;84.10;101543.59;4984039;28;20026;-95
2023/07/14 05:39:39;;;;;;;6.85;3.65;;;;;;;15.93;83.56;101547.81;4983770;28;20065;-95
2023/07/14 05:42:14;;;;;;;5.88;3.50;;;;;;;15.98;83.60;101542.41;5005948;28;20034;-95
2023/07/14 05:44:45;;;;;;;4.50;3.28;;;;;;;16.09;83.95;101544.63;4985708;28;20092;-94
2023/07/14 05:47:31;;;;;;;5.43;3.50;;;;;;;16.18;83.22;101546.91;4985121;28;20022;-96
2023/07/14 05:50:15;;;;;;;5.82;3.35;;;;;;;16.27;82.65;101545.72;4999225;28;20045;-94
2023/07/14 05:55:47;;;;;;;5.78;3.42;;;;;;;16.34;82.55;101535.81;4984561;28;20022;-93
2023/07/14 05:58:56;;;;;;;;;;;;;;;;;;;;;
2023/07/14 06:01:34;;;;;;;;;;;;;;;;;;;;;
2023/07/14 06:04:05;;;;;;;7.32;3.05;;;;;;;16.49;80.96;101543.09;4999142;28;20042;-94
2023/07/14 06:07:24;;;;;;;3.80;2.95;;;;;;;16.58;80.16;101533.13;4987795;28;20023;-92
2023/07/14 06:11:03;;;;;;;;;;;;;;;;;;;;;
2023/07/14 06:12:59;;;;;;;4.45;3.13;;;;;;;16.64;79.75;101543.41;4996242;28;20026;-95
2023/07/14 06:15:28;;;;;;;4.65;2.78;;;;;;;16.68;80.36;101545.00;4992457;28;20026;-95
2023/07/14 06:17:56;;;;;;;5.57;2.70;;;;;;;16.74;78.21;101544.72;5003988;28;20022;-96
2023/07/14 06:21:12;;;;;;;;;;;;;;;;;;;;;
2023/07/14 06:23:56;;;;;;;4.97;2.10;;;;;;;16.77;74.70;101547.25;4973993;28;20039;-93
2023/07/14 06:26:31;;;;;;;;;;;;;;;;;;;;;
2023/07/14 06:29:30;;;;;;;;;;;;;;;;;;;;;
2023/07/14 06:32:44;;;;;;;;;;;;;;;;;;;;;
2023/07/14 06:35:25;;;;;;;;;;;;;;;;;;;;;
2023/07/14 06:38:07;;;;;;;;;;;;;;;;;;;;;
2023/07/14 06:40:56;;;;;;;;;;;;;;;;;;;;;
2023/07/14 06:43:44;;;;;;;4.25;2.08;;;;;;;16.93;72.90;101538.72;5046518;28;20044;-94
2023/07/14 06:46:18;;;;;;;5.10;2.10;;;;;;;17.03;72.05;101539.22;5024401;28;20084;-95
2023/07/14 06:49:14;;;;;;;;;;;;;;;;;;;;;
2023/07/14 06:52:07;;;;;;;;;;;;;;;;;;;;;
2023/07/14 06:54:45;;;;;;;3.42;1.70;;;;;;;17.21;72.09;101532.34;5028161;28;20112;-94
2023/07/14 06:57:19;;;;;;;3.92;1.77;;;;;;;17.22;71.13;101534.06;5085404;22;20125;-94
2023/07/14 06:59:44;;;;;;;3.20;1.77;;;;;;;17.22;70.84;101544.59;5039135;28;20120;-95
2023/07/14 07:02:15;;;;;;;5.15;1.98;;;;;;;17.26;71.17;101535.63;5022142;28;20480;-94
2023/07/14 07:05:33;;;;;;;4.13;2.08;;;;;;;17.34;71.38;101533.53;5021530;28;20120;-94
2023/07/14 07:08:52;;;;;;;;;;;;;;;;;;;;;
2023/07/14 07:11:18;;;;;;;4.50;1.88;;;;;;;17.44;69.58;101534.00;5007369;28;20084;-95
2023/07/14 07:13:56;;;;;;;;;;;;;;;;;;;;;
2023/07/14 07:16:29;;;;;;;3.30;1.60;;;;;;;17.61;70.54;101514.81;5014258;28;20021;-95
2023/07/14 07:18:57;;;;;;;3.40;1.70;;;;;;;17.70;68.44;101513.53;4997278;28;20033;-94
2023/07/14 07:21:22;;;;;;;3.38;1.67;;;;;;;17.78;68.20;101511.44;5011314;28;20034;-91
2023/07/14 07:23:48;;;;;;;4.82;1.80;;;;;;;17.87;67.85;101515.44;5008345;28;20044;-92
2023/07/14 07:26:13;;;;;;;3.50;1.90;;;;;;;17.89;68.04;101509.16;4992838;28;20125;-95
2023/07/14 07:28:46;;;;;;;5.80;1.90;;;;;;;17.92;68.08;101508.19;4994231;28;20100;-94
2023/07/14 07:31:11;;;;;;;3.45;1.65;;;;;;;17.94;66.29;101514.19;5009041;28;20035;-94
2023/07/14 07:33:37;;;;;;;4.75;1.60;;;;;;;17.95;67.11;101509.81;5008737;28;20080;-94
2023/07/14 07:36:30;;;;;;;;;;;;;;;;;;;;;
2023/07/14 07:42:41;;;;;;;2.45;1.23;;;;;;;17.84;65.13;101510.31;5199077;23;20056;-93
2023/07/14 07:45:08;;;;;;;3.00;1.45;;;;;;;17.87;65.01;101504.91;5028349;28;20498;-91
2023/07/14 07:47:33;;;;;;;3.40;1.48;;;;;;;17.87;64.52;101507.53;5027446;28;20344;-93
2023/07/14 07:49:59;;;;;;;3.65;1.50;;;;;;;17.88;65.47;101501.34;5025910;28;20047;-94
2023/07/14 07:52:24;;;;;;;3.72;1.42;;;;;;;17.91;66.71;101495.94;5026010;28;20481;-92
2023/07/14 07:54:50;;;;;;;3.08;1.60;;;;;;;17.97;65.88;101493.00;5024707;28;20056;-93
2023/07/14 07:57:15;;;;;;;2.90;1.63;;;;;;;18.02;65.19;101488.41;5023492;28;20380;-93
2023/07/14 07:59:49;;;;;;;2.88;1.63;;;;;;;18.09;66.69;101482.88;5026086;28;20041;-93
2023/07/14 08:02:14;;;;;;;3.35;1.50;;;;;;;18.15;66.42;101493.09;5025051;28;20211;-94
2023/07/14 08:04:40;;;;;;;2.78;1.65;;;;;;;18.21;65.23;101487.56;5024217;28;20436;-91
2023/07/14 08:07:12;;;;;;;5.03;2.20;;;;;;;18.26;66.82;101496.09;5027937;28;20049;-93
2023/07/14 08:09:58;;;;;;;3.78;2.15;;;;;;;18.31;66.18;101493.25;5027547;28;20504;-95
2023/07/14 08:12:25;;;;;;;3.83;2.33;;;;;;;18.36;65.91;101488.56;5024079;28;20032;-95
2023/07/14 08:14:55;;;;;;;5.43;2.60;;;;;;;18.41;66.22;101488.38;5007253;28;20028;-93
2023/07/14 08:17:25;;;;;;;4.93;2.08;;;;;;;18.48;64.82;101484.50;5025061;28;20101;-92
2023/07/14 08:19:51;;;;;;;3.97;2.10;;;;;;;18.52;64.75;101486.06;5024193;28;21526;-95
2023/07/14 08:22:17;;;;;;;4.22;2.03;;;;;;;18.58;64.64;101488.41;5008508;28;20520;-93
2023/07/14 08:24:42;;;;;;;3.50;1.95;;;;;;;18.67;65.72;101481.84;5024829;28;20043;-94
2023/07/14 08:27:08;;;;;;;2.83;1.80;;;;;;;18.75;64.64;101484.09;5027008;28;20079;-93
2023/07/14 08:29:33;;;;;;;3.97;1.80;;;;;;;18.79;62.34;101485.59;5023681;28;20063;-92
2023/07/14 08:31:59;;;;;;;2.70;1.60;;;;;;;18.83;63.46;101483.69;5024972;28;20083;-92
2023/07/14 08:34:29;;;;;;;4.32;1.65;;;;;;;18.83;62.76;101484.53;5029921;28;20029;-94
2023/07/14 08:36:57;;;;;;;3.78;1.80;;;;;;;18.81;63.12;101486.38;5005935;28;20014;-94
2023/07/14 08:39:23;;;;;;;2.97;1.70;;;;;;;18.79;61.65;101488.25;5023599;28;20086;-92
2023/07/14 08:41:53;;;;;;;3.60;1.80;;;;;;;18.79;63.07;101482.97;5023633;28;20130;-92
2023/07/14 08:44:31;;;;;;;2.90;1.63;;;;;;;18.83;62.56;101486.34;5026501;28;20037;-95
2023/07/14 08:47:22;;;;;;;14.38;1.85;;;;;;;18.84;62.35;101491.50;5009860;28;20072;-94
2023/07/14 08:50:03;;;;;;;3.63;1.75;;;;;;;18.85;62.44;101482.69;4973828;28;20476;-95
2023/07/14 08:52:38;;;;;;;4.10;1.60;;;;;;;18.86;61.60;101484.38;5024711;28;20049;-93
2023/07/14 08:55:13;;;;;;;3.92;1.48;;;;;;;18.85;62.15;101481.84;5024500;28;20075;-93
2023/07/14 08:57:57;;;;;;;2.17;1.33;;;;;;;18.85;62.45;101481.84;5023542;28;20021;-92
2023/07/14 09:00:30;;;;;;;3.28;1.70;;;;;;;18.79;61.56;101477.69;5022268;28;20029;-94
2023/07/14 09:03:21;;;;;;;2.60;1.60;;;;;;;18.77;61.99;101475.16;5024715;28;20033;-86
2023/07/14 09:05:54;;;;;;;4.22;1.75;;;;;;;18.73;62.51;101470.13;5023789;28;20021;-87
2023/07/14 09:08:47;;;;;;;3.78;1.70;;;;;;;18.72;62.94;101463.97;5007128;28;20068;-86
2023/07/14 09:11:21;;;;;;;3.20;1.75;;;;;;;18.76;62.75;101467.34;5025421;28;20049;-86
2023/07/14 09:13:55;;;;;;;3.28;1.65;;;;;;;18.86;62.16;101467.72;5008584;28;20118;-86
2023/07/14 09:16:24;;;;;;;3.95;1.67;;;;;;;18.99;63.43;101467.97;5005086;28;20028;-87
2023/07/14 09:18:59;;;;;;;3.00;1.58;;;;;;;19.10;61.92;101461.22;5024069;28;20441;-89
2023/07/14 09:21:37;;;;;;;5.20;1.70;;;;;;;19.23;62.04;101460.56;5024265;28;20025;-88
2023/07/14 09:24:11;;;;;;;4.35;2.00;;;;;;;19.36;62.35;101455.50;5023518;28;20493;-85
2023/07/14 09:26:44;;;;;;;2.97;1.85;;;;;;;19.41;60.88;101449.03;5024303;28;20025;-85
2023/07/14 09:29:18;;;;;;;3.90;1.90;;;;;;;19.43;60.66;101451.59;5020126;28;20045;-87
2023/07/14 09:32:37;;;;;;;4.20;1.98;;;;;;;19.51;61.74;101454.66;5033218;28;20049;-93
2023/07/14 09:35:15;;;;;;;4.38;1.80;;;;;;;19.56;62.45;101443.84;5003966;28;20034;-87
2023/07/14 09:37:50;;;;;;;3.35;1.60;;;;;;;19.64;63.44;101443.47;5022987;28;20033;-90
2023/07/14 09:40:19;;;;;;;2.95;1.40;;;;;;;19.70;61.96;101445.75;5014353;28;20013;-89
2023/07/14 09:48:03;;;;;;;3.85;1.52;;;;;;;20.02;60.61;101424.66;2246041;23;20057;-91
2023/07/14 09:50:34;;;;;;;3.53;1.70;;;;;;;20.11;59.67;101426.78;5035959;28;20143;-89
2023/07/14 09:53:22;;;;;;;3.20;1.80;;;;;;;20.22;60.94;101422.69;5046078;28;20063;-92
2023/07/14 09:56:06;;;;;;;4.45;1.70;;;;;;;20.27;58.95;101421.47;5048176;28;20033;-93
2023/07/14 09:59:35;;;;;;;;;;;;;;;;;;;;;
2023/07/14 10:05:00;;;;;;;4.50;1.60;;;;;;;20.43;58.81;101421.44;5343331;23;20060;-93
2023/07/14 14:02:28;;;;;;;2.30;1.40;;;;;;;24.84;44.22;101051.34;5044631;28;20434;-94
2023/07/14 14:05:06;;;;;;;2.50;1.38;;;;;;;24.88;43.97;101052.78;5035623;28;20185;-95
2023/07/14 14:07:39;;;;;;;2.67;1.60;;;;;;;24.88;42.66;101041.28;5035195;28;20078;-95
2023/07/14 14:10:23;;;;;;;;;;;;;;;;;;;;;
2023/07/14 14:13:19;;;;;;;;;;;;;;;;;;;;;
2023/07/14 14:15:46;;;;;;;3.13;1.77;;;;;;;24.88;45.21;101020.84;5034666;28;20033;-92
2023/07/14 14:21:04;;;;;;;2.72;1.85;;;;;;;25.07;43.24;101011.31;5027825;28;20410;-93
2023/07/14 14:23:35;;;;;;;2.78;1.70;;;;;;;25.14;43.41;101009.81;5034223;28;20658;-95
2023/07/14 14:26:02;;;;;;;4.65;1.90;;;;;;;25.29;42.92;101002.34;5027228;28;20033;-93
2023/07/14 14:28:28;;;;;;;2.88;1.73;;;;;;;25.37;42.04;101002.50;5038822;28;20470;-93
2023/07/14 14:34:33;;;;;;;3.55;1.77;;;;;;;25.35;42.12;100988.50;5023124;28;20056;-93
2023/07/14 14:36:58;;;;;;;2.75;1.90;;;;;;;25.30;41.86;100974.72;5037819;28;20028;-92
2023/07/14 14:39:23;;;;;;;2.85;1.70;;;;;;;25.26;42.74;100976.81;5035612;28;20029;-92
2023/07/14 14:41:49;;;;;;;3.80;1.83;;;;;;;25.21;42.98;100962.19;5036938;28;20176;-91
2023/07/14 14:44:20;;;;;;;4.60;1.92;;;;;;;25.14;42.55;100951.25;5034207;28;20017;-90
2023/07/14 14:46:46;;;;;;;3.33;2.08;;;;;;;25.07;43.03;100956.25;5042942;28;20061;-90
2023/07/14 14:49:24;;;;;;;3.65;1.80;;;;;;;25.04;43.21;100947.69;5035600;28;20056;-93
2023/07/14 14:51:50;;;;;;;3.88;1.80;;;;;;;25.03;44.19;100938.84;5036011;28;20037;-94
2023/07/14 14:54:29;;;;;;;4.35;2.00;;;;;;;24.98;43.11;100936.59;5040247;28;20488;-95
2023/07/14 14:56:54;;;;;;;2.47;1.73;;;;;;;24.89;42.31;100926.75;5023325;28;20037;-92
2023/07/14 14:59:25;;;;;;;3.50;1.90;;;;;;;24.83;42.26;100919.28;5034951;28;20033;-92
2023/07/14 15:02:05;;;;;;;3.10;2.05;;;;;;;24.81;41.67;100926.53;5044577;28;20410;-94
2023/07/14 15:04:34;;;;;;;3.63;2.00;;;;;;;24.77;41.81;100922.44;5040530;28;20040;-93
2023/07/14 15:07:10;;;;;;;;;;;;;;;;;;;;;
2023/07/14 15:09:40;;;;;;;3.40;2.00;;;;;;;24.73;41.61;100903.25;5039531;28;20488;-93
2023/07/14 15:12:12;;;;;;;3.05;1.73;;;;;;;24.76;41.78;100904.81;5046297;28;20049;-96
2023/07/14 15:14:38;;;;;;;5.05;2.22;;;;;;;24.77;42.03;100896.69;5055574;28;20104;-91
2023/07/14 15:17:22;;;;;;;2.97;2.10;;;;;;;24.82;42.20;100899.81;5043236;28;20024;-93
2023/07/14 15:23:46;;;;;;;3.95;1.90;;;;;;;24.87;42.57;100886.13;5031395;28;20033;-95
2023/07/14 15:26:42;;;;;;;;;;;;;;;;;;;;;
2023/07/14 15:29:31;;;;;;;;;;;;;;;;;;;;;
2023/07/14 15:32:07;;;;;;;;;;;;;;;;;;;;;
2023/07/14 15:34:54;;;;;;;;;;;;;;;;;;;;;
2023/07/14 15:37:38;;;;;;;;;;;;;;;;;;;;;
2023/07/14 15:40:15;;;;;;;;;;;;;;;;;;;;;
2023/07/14 15:43:04;;;;;;;5.68;2.63;;;;;;;25.06;45.58;100821.47;5040982;28;20469;-94
2023/07/14 15:46:23;;;;;;;;;;;;;;;;;;;;;
2023/07/14 15:53:00;;;;;;;5.78;2.33;;;;;;;24.88;45.18;100802.66;5027225;28;20068;-95
2023/07/14 15:55:44;;;;;;;;;;;;;;;;;;;;;
2023/07/14 16:04:43;;;;;;;;;;;;;;;;;;;;;
2023/07/14 16:07:16;;;;;;;2.80;2.00;;;;;;;24.65;44.61;100786.00;5033947;28;20037;-93
2023/07/14 16:09:52;;;;;;;;;;;;;;;;;;;;;
2023/07/14 16:12:23;;;;;;;3.17;2.00;;;;;;;24.62;44.20;100779.09;5036088;28;20501;-93
2023/07/14 16:14:48;;;;;;;3.40;2.13;;;;;;;24.61;42.86;100774.75;5037750;28;20033;-93
2023/07/14 16:17:35;;;;;;;3.65;2.10;;;;;;;24.62;43.84;100767.63;5036935;28;20392;-94
2023/07/14 16:19:59;;;;;;;3.92;1.95;;;;;;;24.62;44.86;100768.47;5032522;28;20068;-94
2023/07/14 16:22:24;;;;;;;4.78;2.20;;;;;;;24.62;44.19;100757.81;5035223;28;20557;-92
2023/07/14 16:24:52;;;;;;;4.32;2.10;;;;;;;24.64;44.55;100761.19;5034665;28;20525;-92
2023/07/14 16:27:34;;;;;;;;;;;;;;;;;;;;;
2023/07/14 16:30:02;;;;;;;4.38;2.40;;;;;;;24.55;46.05;100751.38;5035953;28;20025;-94
2023/07/14 16:32:28;;;;;;;3.60;2.40;;;;;;;24.48;45.73;100742.22;5034214;28;20025;-92
2023/07/14 16:35:02;;;;;;;4.47;2.45;;;;;;;24.44;46.06;100746.97;5029713;28;20173;-93
2023/07/14 16:37:46;;;;;;;;;;;;;;;;;;;;;
2023/07/14 16:41:17;;;;;;;5.35;2.75;;;;;;;24.51;44.83;100731.34;5043658;28;20031;-95
2023/07/14 16:43:20;;;;;;;14.45;6.82;;;;;;;24.63;45.51;100732.09;5029227;28;20168;-93
2023/07/14 16:45:52;;;;;;;10.77;4.88;;;;;;;24.74;44.05;100723.19;5030714;28;20032;-91
2023/07/14 16:48:18;;;;;;;7.72;3.80;;;;;;;24.76;43.66;100724.75;5032042;28;20048;-90
2023/07/14 16:50:45;;;;;;;5.78;3.25;;;;;;;24.81;43.72;100721.66;5032630;28;20029;-90
2023/07/14 16:53:14;;;;;;;7.85;3.30;;;;;;;24.93;43.58;100717.09;5034358;28;20094;-91
2023/07/14 16:55:41;;;;;;;6.57;3.38;;;;;;;25.15;42.66;100708.00;5033313;28;20036;-91
2023/07/14 16:58:16;;;;;;;5.68;2.83;;;;;;;25.31;42.95;100713.63;5033739;28;20031;-91
2023/07/14 17:00:43;;;;;;;5.55;2.35;;;;;;;25.33;41.42;100712.66;5036250;28;20041;-91
2023/07/14 17:03:19;;;;;;;3.88;2.40;;;;;;;25.33;42.92;100707.31;5033722;28;21451;-91
2023/07/14 17:05:48;;;;;;;6.85;2.70;;;;;;;25.34;43.28;100711.66;5036816;28;20020;-93
2023/07/14 17:08:23;;;;;;;6.28;2.83;;;;;;;25.39;43.38;100709.44;5036371;28;20029;-93
2023/07/14 17:10:52;;;;;;;6.85;3.47;;;;;;;25.47;44.19;100695.44;5017789;28;20025;-93
2023/07/14 17:13:19;;;;;;;6.45;3.70;;;;;;;25.63;43.45;100693.06;5037485;28;20032;-91
2023/07/14 17:15:51;;;;;;;6.57;3.05;;;;;;;25.76;42.49;100687.44;5036346;28;20032;-92
2023/07/14 17:18:18;;;;;;;;;;;;;;;26.44;44.59;100689.09;5034362;28;20091;-90
2023/07/14 17:20:47;;;;;;;5.60;3.03;;;;;;;27.54;40.17;100681.09;5035460;28;19935;-90
2023/07/14 17:23:17;;;;;;;5.53;3.00;;;;;;;27.99;41.14;100689.91;5034219;28;20103;-91
2023/07/14 17:25:44;;;;;;;5.40;3.03;;;;;;;29.60;37.62;100674.00;5035836;28;20500;-91
2023/07/14 17:28:22;;;;;;;6.72;2.75;;;;;;;31.44;34.58;100680.09;5056206;28;20261;-90
2023/07/14 17:31:02;;;;;;;;;;;;;;;;;;;;;
2023/07/14 17:33:51;;;;;;;11.23;5.43;;;;;;;32.81;31.23;100670.00;5043013;28;20049;-92
2023/07/14 17:36:20;;;;;;;5.45;3.50;;;;;;;33.44;28.65;100658.59;5037136;28;20036;-94
2023/07/14 17:39:04;;;;;;;;;;;;;;;;;;;;;
2023/07/14 17:41:30;;;;;;;8.07;4.35;;;;;;;34.34;28.54;100660.56;5049318;28;20574;-92
2023/07/14 17:49:15;;;;;;;6.35;3.30;;;;;;;33.69;28.82;100655.44;4984199;28;20050;-94
2023/07/14 17:52:00;;;;;;;6.95;3.70;;;;;;;32.71;31.02;100656.00;4987203;28;20030;-93
2023/07/14 17:54:41;;;;;;;6.80;3.30;;;;;;;32.54;30.07;100658.06;4985548;28;20391;-94
2023/07/14 17:57:18;;;;;;;5.00;3.05;;;;;;;33.93;29.28;100647.94;5000674;28;20032;-92
2023/07/14 17:59:53;;;;;;;;;;;;;;;;;;;;;
2023/07/14 18:02:27;;;;;;;8.50;4.22;;;;;;;35.87;26.86;100643.09;4989113;28;20022;-94
2023/07/14 18:05:10;;;;;;;;;;;;;;;;;;;;;